Time;durP1;ratioP1;P1;durP2;ratioP2;P2;SDS_P1;SDS_P2;PMS_P1;PMS_P2;Temp;Humidity;BMP_temperature;BMP_pressure;BME280_temperature;BME280_humidity;BME280_pressure;Samples;Min_cycle;Max_cycle;Signal;HPM_P1;HPM_P2
2021/12/15 00:02:28;;;;;;;27.15;20.17;;;;;;;;;;5019897;28;20455;-88
2021/12/15 00:04:56;;;;;;;25.83;20.08;;;;;;;;;;5019656;28;20492;-86
2021/12/15 00:07:25;;;;;;;27.92;19.92;;;;;;;;;;5012728;28;20911;-87
2021/12/15 00:09:52;;;;;;;25.20;19.07;;;;;;;;;;5019447;28;20776;-88
2021/12/15 00:12:19;;;;;;;27.80;19.52;;;;;;;;;;5011196;28;20411;-88
2021/12/15 00:14:47;;;;;;;25.75;20.10;;;;;;;;;;5018705;28;20409;-87
2021/12/15 00:17:15;;;;;;;24.95;19.25;;;;;;;;;;5014937;28;20405;-87
2021/12/15 00:19:44;;;;;;;25.83;19.50;;;;;;;;;;5014456;28;20421;-88
2021/12/15 00:22:10;;;;;;;25.50;18.45;;;;;;;;;;5015128;28;20426;-88
2021/12/15 00:24:38;;;;;;;24.92;18.45;;;;;;;;;;5018374;28;20401;-88
2021/12/15 00:27:05;;;;;;;21.35;16.42;;;;;;;;;;5021610;28;20406;-87
2021/12/15 00:29:32;;;;;;;20.95;15.65;;;;;;;;;;5019866;28;20402;-87
2021/12/15 00:32:03;;;;;;;20.70;15.40;;;;;;;;;;5012377;28;20457;-87
2021/12/15 00:34:31;;;;;;;20.87;15.83;;;;;;;;;;5026008;28;20415;-87
2021/12/15 00:36:59;;;;;;;19.95;15.45;;;;;;;;;;5034259;28;20411;-88
2021/12/15 00:39:27;;;;;;;19.20;15.07;;;;;;;;;;5014042;28;20416;-88
2021/12/15 00:41:55;;;;;;;19.85;15.13;;;;;;;;;;5022139;28;21183;-87
2021/12/15 00:44:22;;;;;;;19.10;14.88;;;;;;;;;;5022829;28;20913;-88
2021/12/15 00:46:51;;;;;;;22.23;16.05;;;;;;;;;;5013151;28;21232;-86
2021/12/15 00:49:19;;;;;;;24.15;17.20;;;;;;;;;;5011298;28;20490;-88
2021/12/15 00:51:46;;;;;;;24.20;17.77;;;;;;;;;;5014784;28;20401;-88
2021/12/15 00:54:14;;;;;;;26.55;19.15;;;;;;;;;;5011749;28;20399;-87
2021/12/15 00:56:42;;;;;;;26.58;19.40;;;;;;;;;;5013457;28;20403;-87
2021/12/15 00:59:11;;;;;;;26.05;19.30;;;;;;;;;;5016945;28;20420;-87
2021/12/15 01:01:39;;;;;;;26.48;19.10;;;;;;;;;;5010039;28;20434;-87
2021/12/15 01:04:08;;;;;;;25.33;19.73;;;;;;;;;;5007685;28;20791;-87
2021/12/15 01:06:35;;;;;;;25.80;18.75;;;;;;;;;;5011182;28;20403;-87
2021/12/15 01:09:06;;;;;;;25.25;18.88;;;;;;;;;;5012197;28;20402;-87
2021/12/15 01:11:54;;;;;;;26.08;19.08;;;;;;;;;;5019768;28;20429;-87
2021/12/15 01:14:35;;;;;;;27.02;19.38;;;;;;;;;;5012273;28;20510;-87
2021/12/15 01:19:53;;;;;;;24.45;19.23;;;;;;;;;;5011634;28;20418;-87
2021/12/15 01:22:27;;;;;;;25.33;19.17;;;;;;;;;;5012717;28;20829;-87
2021/12/15 01:24:57;;;;;;;23.50;18.08;;;;;;;;;;5023310;28;21061;-87
2021/12/15 01:27:27;;;;;;;23.98;18.40;;;;;;;;;;4990648;28;20961;-87
2021/12/15 01:29:54;;;;;;;24.63;19.00;;;;;;;;;;5022133;28;20424;-87
2021/12/15 01:32:22;;;;;;;21.48;17.52;;;;;;;;;;5021793;28;20414;-87
2021/12/15 01:34:48;;;;;;;23.93;18.07;;;;;;;;;;5022319;28;20411;-87
2021/12/15 01:37:17;;;;;;;24.92;18.02;;;;;;;;;;5024860;28;20416;-85
2021/12/15 01:39:45;;;;;;;21.95;17.80;;;;;;;;;;5013064;28;20406;-87
2021/12/15 01:42:12;;;;;;;22.92;18.27;;;;;;;;;;5012218;28;20438;-88
2021/12/15 01:47:25;;;;;;;22.05;17.48;;;;;;;;;;5015626;28;20410;-88
2021/12/15 01:49:54;;;;;;;23.25;17.52;;;;;;;;;;5011335;28;20410;-87
2021/12/15 01:52:25;;;;;;;22.63;17.33;;;;;;;;;;5011341;28;20408;-87
2021/12/15 01:54:56;;;;;;;22.17;17.60;;;;;;;;;;5023710;28;20454;-88
2021/12/15 01:57:27;;;;;;;24.02;17.83;;;;;;;;;;5014392;28;20821;-88
2021/12/15 01:59:57;;;;;;;23.98;17.48;;;;;;;;;;5018024;28;20426;-88
2021/12/15 02:02:25;;;;;;;23.20;17.30;;;;;;;;;;5007681;28;20407;-88
2021/12/15 02:04:53;;;;;;;22.83;17.65;;;;;;;;;;5025194;28;20420;-88
2021/12/15 02:07:22;;;;;;;21.77;17.35;;;;;;;;;;5015039;28;20411;-88
2021/12/15 02:10:04;;;;;;;23.05;17.40;;;;;;;;;;5018617;28;20414;-88
2021/12/15 02:12:36;;;;;;;22.00;16.98;;;;;;;;;;5013748;28;20494;-87
2021/12/15 02:15:10;;;;;;;21.10;15.88;;;;;;;;;;5029102;28;20406;-88
2021/12/15 02:17:38;;;;;;;19.88;15.93;;;;;;;;;;5029386;28;20451;-88
2021/12/15 02:20:07;;;;;;;22.10;16.52;;;;;;;;;;5025404;28;20772;-88
2021/12/15 02:22:36;;;;;;;19.60;15.82;;;;;;;;;;5013274;28;20403;-86
2021/12/15 02:25:07;;;;;;;19.90;15.48;;;;;;;;;;5008827;28;20771;-88
2021/12/15 02:27:35;;;;;;;21.23;15.93;;;;;;;;;;5022278;28;20439;-88
2021/12/15 02:30:18;;;;;;;19.95;15.60;;;;;;;;;;5027958;28;20413;-88
2021/12/15 02:32:57;;;;;;;18.35;14.95;;;;;;;;;;5017863;28;20763;-88
2021/12/15 02:38:09;;;;;;;18.23;14.50;;;;;;;;;;5011512;28;20405;-84
2021/12/15 02:40:38;;;;;;;18.13;13.80;;;;;;;;;;5017025;28;20895;-88
2021/12/15 02:43:06;;;;;;;17.60;14.20;;;;;;;;;;5013523;28;20411;-86
2021/12/15 02:45:33;;;;;;;18.02;14.20;;;;;;;;;;5021651;28;20413;-88
2021/12/15 02:48:00;;;;;;;16.70;13.82;;;;;;;;;;5025765;28;20401;-88
2021/12/15 02:50:29;;;;;;;16.65;13.80;;;;;;;;;;5021878;28;20409;-89
2021/12/15 02:52:58;;;;;;;15.98;13.05;;;;;;;;;;5017692;28;20404;-88
2021/12/15 02:55:27;;;;;;;17.20;13.88;;;;;;;;;;5018062;28;20411;-88
2021/12/15 02:57:54;;;;;;;16.13;12.90;;;;;;;;;;5021183;28;20813;-88
2021/12/15 03:00:24;;;;;;;15.63;13.40;;;;;;;;;;5014609;28;20422;-87
2021/12/15 03:05:45;;;;;;;16.73;13.82;;;;;;;;;;5015811;28;20485;-88
2021/12/15 03:08:16;;;;;;;18.25;14.43;;;;;;;;;;5016635;28;20938;-88
2021/12/15 03:16:19;;;;;;;19.67;15.60;;;;;;;;;;5016668;28;20394;-88
2021/12/15 03:18:46;;;;;;;20.85;15.48;;;;;;;;;;5023791;28;20910;-88
2021/12/15 03:21:15;;;;;;;22.65;15.77;;;;;;;;;;5014930;28;20431;-88
2021/12/15 03:23:49;;;;;;;20.27;15.98;;;;;;;;;;5025562;28;20417;-88
2021/12/15 03:26:24;;;;;;;20.25;15.43;;;;;;;;;;5032879;28;20499;-88
2021/12/15 03:34:39;;;;;;;20.20;15.32;;;;;;;;;;5019483;28;20412;-86
2021/12/15 03:37:22;;;;;;;20.50;14.87;;;;;;;;;;5021529;28;20465;-88
2021/12/15 03:39:52;;;;;;;17.95;14.93;;;;;;;;;;5020297;28;20494;-88
2021/12/15 03:42:26;;;;;;;19.45;14.55;;;;;;;;;;5018402;28;20421;-88
2021/12/15 03:44:54;;;;;;;20.40;14.83;;;;;;;;;;5024736;28;20459;-88
2021/12/15 03:47:24;;;;;;;19.77;15.27;;;;;;;;;;5017674;28;20407;-86
2021/12/15 03:49:53;;;;;;;19.05;15.75;;;;;;;;;;5015007;28;20405;-88
2021/12/15 03:52:20;;;;;;;19.50;15.73;;;;;;;;;;5025592;28;20460;-88
2021/12/15 03:54:48;;;;;;;20.55;16.67;;;;;;;;;;5018699;28;20745;-88
2021/12/15 03:57:15;;;;;;;20.33;16.90;;;;;;;;;;5023649;28;20417;-87
2021/12/15 03:59:45;;;;;;;21.00;16.60;;;;;;;;;;5018590;28;20417;-88
2021/12/15 04:02:14;;;;;;;21.83;16.35;;;;;;;;;;5023305;28;20435;-87
2021/12/15 04:04:42;;;;;;;19.90;16.35;;;;;;;;;;5014684;28;20415;-87
2021/12/15 04:07:10;;;;;;;21.23;17.25;;;;;;;;;;5019224;28;20906;-86
2021/12/15 04:09:37;;;;;;;22.00;16.42;;;;;;;;;;5018024;28;20741;-87
2021/12/15 04:12:05;;;;;;;18.38;15.35;;;;;;;;;;5016584;28;20413;-88
2021/12/15 04:14:41;;;;;;;21.70;16.02;;;;;;;;;;5028136;28;20781;-87
2021/12/15 04:17:26;;;;;;;18.80;15.48;;;;;;;;;;5018059;28;20407;-88
2021/12/15 04:19:56;;;;;;;19.90;15.55;;;;;;;;;;5019805;28;20413;-87
2021/12/15 04:22:24;;;;;;;19.57;15.50;;;;;;;;;;5024364;28;20453;-88
2021/12/15 04:24:51;;;;;;;19.48;15.50;;;;;;;;;;5013248;28;20411;-88
2021/12/15 04:27:20;;;;;;;19.38;15.75;;;;;;;;;;5023317;28;20405;-88
2021/12/15 04:29:47;;;;;;;19.65;15.45;;;;;;;;;;5017769;28;20409;-87
2021/12/15 04:32:21;;;;;;;20.05;15.65;;;;;;;;;;5020037;28;20405;-88
2021/12/15 04:34:48;;;;;;;19.37;14.77;;;;;;;;;;5019229;28;20442;-88
2021/12/15 04:37:15;;;;;;;18.90;14.68;;;;;;;;;;5011694;28;20422;-88
2021/12/15 04:39:42;;;;;;;18.90;14.85;;;;;;;;;;5019462;28;20894;-88
2021/12/15 04:42:11;;;;;;;18.38;14.55;;;;;;;;;;5022711;28;20423;-88
2021/12/15 04:44:38;;;;;;;19.55;14.50;;;;;;;;;;5020810;28;20409;-88
2021/12/15 04:47:10;;;;;;;18.30;14.47;;;;;;;;;;5019486;28;20403;-88
2021/12/15 04:49:41;;;;;;;18.48;13.85;;;;;;;;;;5008644;28;20410;-89
2021/12/15 04:52:09;;;;;;;19.27;14.07;;;;;;;;;;5012767;28;20428;-88
2021/12/15 04:54:37;;;;;;;18.60;13.98;;;;;;;;;;5025783;28;20409;-87
2021/12/15 04:57:04;;;;;;;17.77;14.15;;;;;;;;;;5020164;28;20405;-88
2021/12/15 04:59:31;;;;;;;17.65;13.55;;;;;;;;;;5023407;28;20412;-88
2021/12/15 05:01:59;;;;;;;17.48;13.80;;;;;;;;;;5024144;28;20432;-89
2021/12/15 05:04:26;;;;;;;17.90;13.60;;;;;;;;;;5015791;28;20419;-87
2021/12/15 05:06:54;;;;;;;19.42;13.43;;;;;;;;;;5024397;28;20405;-88
2021/12/15 05:09:21;;;;;;;17.42;13.07;;;;;;;;;;5018958;28;21019;-86
2021/12/15 05:11:50;;;;;;;15.80;12.43;;;;;;;;;;5017736;28;20891;-88
2021/12/15 05:14:18;;;;;;;16.58;14.45;;;;;;;;;;5020551;28;20402;-88
2021/12/15 05:16:45;;;;;;;16.48;13.38;;;;;;;;;;5018920;28;20459;-89
2021/12/15 05:19:12;;;;;;;15.35;12.52;;;;;;;;;;5017097;28;20418;-88
2021/12/15 05:21:39;;;;;;;16.55;12.30;;;;;;;;;;5016368;28;20426;-86
2021/12/15 05:24:14;;;;;;;17.55;12.95;;;;;;;;;;5022265;28;20413;-88
2021/12/15 05:26:41;;;;;;;16.90;12.85;;;;;;;;;;5021126;28;20960;-87
2021/12/15 05:29:08;;;;;;;18.92;13.20;;;;;;;;;;5022467;28;20889;-88
2021/12/15 05:31:35;;;;;;;16.98;13.57;;;;;;;;;;5015680;28;20419;-87
2021/12/15 05:34:03;;;;;;;17.27;13.27;;;;;;;;;;5020305;28;20428;-88
2021/12/15 05:36:30;;;;;;;19.30;13.47;;;;;;;;;;5014071;28;20910;-86
2021/12/15 05:38:57;;;;;;;18.60;14.55;;;;;;;;;;5014823;28;20409;-88
2021/12/15 05:41:26;;;;;;;17.33;13.13;;;;;;;;;;5009994;28;20431;-89
2021/12/15 05:43:53;;;;;;;17.33;13.60;;;;;;;;;;5026968;28;20421;-86
2021/12/15 05:46:20;;;;;;;18.17;13.80;;;;;;;;;;5029161;28;20405;-87
2021/12/15 05:48:47;;;;;;;18.93;13.70;;;;;;;;;;5018634;28;20561;-88
2021/12/15 05:51:14;;;;;;;19.45;13.95;;;;;;;;;;5017571;28;20403;-87
2021/12/15 05:53:41;;;;;;;18.42;13.35;;;;;;;;;;5018405;28;20406;-88
2021/12/15 05:56:08;;;;;;;18.10;13.45;;;;;;;;;;5023319;28;20401;-88
2021/12/15 05:58:37;;;;;;;19.05;13.77;;;;;;;;;;5020498;28;20419;-87
2021/12/15 06:01:05;;;;;;;19.83;13.95;;;;;;;;;;5011632;28;20415;-87
2021/12/15 06:03:32;;;;;;;17.58;13.63;;;;;;;;;;5020550;28;20410;-88
2021/12/15 06:06:00;;;;;;;17.65;13.57;;;;;;;;;;5017624;28;20409;-87
2021/12/15 06:08:27;;;;;;;17.52;13.52;;;;;;;;;;5020810;28;20409;-87
2021/12/15 06:10:54;;;;;;;20.38;14.00;;;;;;;;;;5020015;28;20409;-87
2021/12/15 06:13:23;;;;;;;16.97;13.47;;;;;;;;;;5018917;28;20421;-87
2021/12/15 06:15:52;;;;;;;17.80;13.57;;;;;;;;;;5014086;28;20489;-88
2021/12/15 06:18:20;;;;;;;21.08;13.70;;;;;;;;;;5016190;28;20407;-87
2021/12/15 06:20:49;;;;;;;17.52;13.57;;;;;;;;;;5025216;28;20417;-87
2021/12/15 06:23:19;;;;;;;20.58;14.73;;;;;;;;;;5028974;28;20411;-85
2021/12/15 06:25:48;;;;;;;18.52;14.27;;;;;;;;;;5034754;28;20406;-88
2021/12/15 06:28:16;;;;;;;18.75;15.38;;;;;;;;;;5019607;28;20418;-88
2021/12/15 06:30:44;;;;;;;21.35;15.40;;;;;;;;;;5016846;28;20748;-89
2021/12/15 06:33:14;;;;;;;22.95;16.83;;;;;;;;;;4946979;28;1963320;-90
2021/12/15 06:35:42;;;;;;;27.60;18.52;;;;;;;;;;5017865;28;20422;-92
2021/12/15 06:38:09;;;;;;;28.85;20.05;;;;;;;;;;5017559;28;20499;-91
2021/12/15 06:40:36;;;;;;;26.90;19.50;;;;;;;;;;5016073;28;20413;-91
2021/12/15 06:43:03;;;;;;;31.13;21.80;;;;;;;;;;5017433;28;20427;-92
2021/12/15 06:45:36;;;;;;;27.17;18.63;;;;;;;;;;5020564;28;20888;-90
2021/12/15 06:59:03;;;;;;;24.07;17.03;;;;;;;;;;5018724;28;20459;-89
2021/12/15 07:01:30;;;;;;;23.15;17.27;;;;;;;;;;5014263;28;20415;-89
2021/12/15 07:03:57;;;;;;;21.65;16.38;;;;;;;;;;5021533;28;20420;-89
2021/12/15 07:06:25;;;;;;;21.98;16.80;;;;;;;;;;5024476;28;20410;-90
2021/12/15 07:08:52;;;;;;;21.83;16.20;;;;;;;;;;5017627;28;20424;-89
2021/12/15 07:11:19;;;;;;;19.83;15.80;;;;;;;;;;5013479;28;20418;-89
2021/12/15 07:13:46;;;;;;;22.02;15.80;;;;;;;;;;5013941;28;20771;-89
2021/12/15 07:16:13;;;;;;;23.45;16.50;;;;;;;;;;5012832;28;20411;-90
2021/12/15 07:18:49;;;;;;;51.67;28.52;;;;;;;;;;5011163;28;20407;-90
2021/12/15 07:21:21;;;;;;;70.75;36.25;;;;;;;;;;5017415;28;20435;-89
2021/12/15 07:23:53;;;;;;;64.18;36.05;;;;;;;;;;5014764;28;20407;-89
2021/12/15 07:26:21;;;;;;;39.43;25.10;;;;;;;;;;5012587;28;20417;-90
2021/12/15 07:28:48;;;;;;;22.63;16.58;;;;;;;;;;5013247;28;20403;-89
2021/12/15 07:31:16;;;;;;;20.95;15.73;;;;;;;;;;5016377;28;20414;-89
2021/12/15 07:33:43;;;;;;;20.27;15.38;;;;;;;;;;5012706;28;20413;-89
2021/12/15 07:36:11;;;;;;;20.45;14.82;;;;;;;;;;5021956;28;20846;-89
2021/12/15 07:38:41;;;;;;;19.25;15.13;;;;;;;;;;5020680;28;20406;-89
2021/12/15 07:41:20;;;;;;;20.60;14.73;;;;;;;;;;5013712;28;20488;-89
2021/12/15 07:43:47;;;;;;;21.83;14.93;;;;;;;;;;5013238;28;20407;-89
2021/12/15 07:46:14;;;;;;;20.10;14.80;;;;;;;;;;5016668;28;20477;-89
2021/12/15 07:48:41;;;;;;;20.60;16.30;;;;;;;;;;5014488;28;20410;-89
2021/12/15 07:51:10;;;;;;;18.85;14.63;;;;;;;;;;5018335;28;20839;-88
2021/12/15 07:53:40;;;;;;;20.05;14.77;;;;;;;;;;5023871;28;20455;-89
2021/12/15 07:56:08;;;;;;;21.17;15.00;;;;;;;;;;5011465;28;20895;-88
2021/12/15 07:58:36;;;;;;;21.85;15.95;;;;;;;;;;5016281;28;20409;-87
2021/12/15 08:01:05;;;;;;;23.15;15.82;;;;;;;;;;5023077;28;20417;-87
2021/12/15 08:03:34;;;;;;;20.58;15.80;;;;;;;;;;5021486;28;20483;-89
2021/12/15 08:06:02;;;;;;;22.00;15.30;;;;;;;;;;5017686;28;20397;-86
2021/12/15 08:08:29;;;;;;;21.17;15.52;;;;;;;;;;5016745;28;20420;-86
2021/12/15 08:10:57;;;;;;;21.92;16.50;;;;;;;;;;5014154;28;20881;-89
2021/12/15 08:13:25;;;;;;;21.50;15.82;;;;;;;;;;5016734;28;20429;-87
2021/12/15 08:15:54;;;;;;;22.17;16.77;;;;;;;;;;5017668;28;21401;-87
2021/12/15 08:18:21;;;;;;;24.15;17.83;;;;;;;;;;5015797;28;20457;-89
2021/12/15 08:20:50;;;;;;;22.98;17.00;;;;;;;;;;5018026;28;20405;-88
2021/12/15 08:23:17;;;;;;;24.58;17.30;;;;;;;;;;5015640;28;20929;-89
2021/12/15 08:25:44;;;;;;;25.23;17.80;;;;;;;;;;5018508;28;20916;-87
2021/12/15 08:28:12;;;;;;;24.25;17.80;;;;;;;;;;5014953;28;20951;-87
2021/12/15 08:30:41;;;;;;;25.58;18.17;;;;;;;;;;5020815;28;20758;-87
2021/12/15 08:33:16;;;;;;;25.17;17.97;;;;;;;;;;5014153;28;20419;-89
2021/12/15 08:35:46;;;;;;;23.33;18.05;;;;;;;;;;5019061;28;20873;-88
2021/12/15 08:38:13;;;;;;;24.80;17.50;;;;;;;;;;5019656;28;20412;-88
2021/12/15 08:40:42;;;;;;;23.40;17.30;;;;;;;;;;5015195;28;20416;-88
2021/12/15 08:43:09;;;;;;;24.80;17.17;;;;;;;;;;5015043;28;20450;-87
2021/12/15 08:45:38;;;;;;;23.75;17.65;;;;;;;;;;5016538;28;20465;-90
2021/12/15 08:48:07;;;;;;;31.27;20.20;;;;;;;;;;5015461;28;20397;-88
2021/12/15 08:50:38;;;;;;;36.38;24.88;;;;;;;;;;5018705;28;20407;-90
2021/12/15 08:53:09;;;;;;;36.25;24.77;;;;;;;;;;5020343;28;20402;-89
2021/12/15 08:55:36;;;;;;;37.45;25.40;;;;;;;;;;5015855;28;20432;-89
2021/12/15 08:58:05;;;;;;;35.03;23.63;;;;;;;;;;5016485;28;20402;-89
2021/12/15 09:00:33;;;;;;;34.28;23.17;;;;;;;;;;5015798;28;20413;-88
2021/12/15 09:03:00;;;;;;;31.83;21.73;;;;;;;;;;5012009;28;20431;-87
2021/12/15 09:05:27;;;;;;;30.17;20.60;;;;;;;;;;5023917;28;20406;-89
2021/12/15 09:07:59;;;;;;;26.75;18.83;;;;;;;;;;5020162;28;20812;-86
2021/12/15 09:10:28;;;;;;;27.63;17.95;;;;;;;;;;5012856;28;20413;-86
2021/12/15 09:12:55;;;;;;;25.35;18.13;;;;;;;;;;5019982;28;20413;-88
2021/12/15 09:15:22;;;;;;;26.90;17.27;;;;;;;;;;5016387;28;20792;-88
2021/12/15 09:17:50;;;;;;;22.42;16.30;;;;;;;;;;5018158;28;20417;-89
2021/12/15 09:20:20;;;;;;;21.40;15.50;;;;;;;;;;5028949;28;20409;-88
2021/12/15 09:22:48;;;;;;;22.05;15.43;;;;;;;;;;5018851;28;20425;-87
2021/12/15 09:25:17;;;;;;;20.08;14.63;;;;;;;;;;5035402;28;20393;-88
2021/12/15 09:27:45;;;;;;;23.20;16.75;;;;;;;;;;5043208;28;20401;-90
2021/12/15 09:30:16;;;;;;;18.80;14.50;;;;;;;;;;5012957;28;20414;-89
2021/12/15 09:32:43;;;;;;;17.10;13.25;;;;;;;;;;5012951;28;20739;-86
2021/12/15 09:35:11;;;;;;;17.25;13.00;;;;;;;;;;5011135;28;20403;-87
2021/12/15 09:37:37;;;;;;;17.20;13.80;;;;;;;;;;5010826;28;20414;-87
2021/12/15 09:40:05;;;;;;;15.70;13.02;;;;;;;;;;5014396;28;20402;-88
2021/12/15 09:42:38;;;;;;;16.50;13.52;;;;;;;;;;5013060;28;20407;-89
2021/12/15 09:45:21;;;;;;;17.40;14.32;;;;;;;;;;5014489;28;20411;-89
2021/12/15 09:48:02;;;;;;;14.70;12.82;;;;;;;;;;5013378;28;20407;-87
2021/12/15 10:04:25;;;;;;;15.82;12.25;;;;;;;;;;5011377;28;20437;-87
2021/12/15 10:07:16;;;;;;;14.33;12.57;;;;;;;;;;5017401;28;20593;-88
2021/12/15 10:17:22;;;;;;;17.93;13.50;;;;;;;;;;5014199;28;20477;-87
2021/12/15 10:18:14;;;;;;;18.88;13.90;;;;;;;;;;5017344;28;20397;-89
2021/12/15 10:20:42;;;;;;;22.03;15.17;;;;;;;;;;5013614;28;20411;-88
2021/12/15 10:23:13;;;;;;;20.42;15.35;;;;;;;;;;5011313;28;20419;-88
2021/12/15 10:25:45;;;;;;;21.90;17.13;;;;;;;;;;5013332;28;20410;-88
2021/12/15 10:28:15;;;;;;;20.40;15.95;;;;;;;;;;5014305;28;20504;-87
2021/12/15 10:30:46;;;;;;;21.60;15.75;;;;;;;;;;5021877;28;20417;-87
2021/12/15 10:33:15;;;;;;;20.25;15.55;;;;;;;;;;5024076;28;20436;-87
2021/12/15 10:35:44;;;;;;;21.63;15.15;;;;;;;;;;5017701;28;20509;-89
2021/12/15 10:38:19;;;;;;;18.57;15.10;;;;;;;;;;5015068;28;20406;-90
2021/12/15 10:40:50;;;;;;;20.83;15.27;;;;;;;;;;5019489;28;20409;-90
2021/12/15 10:43:18;;;;;;;19.15;15.20;;;;;;;;;;5024980;28;20413;-89
2021/12/15 10:45:50;;;;;;;21.83;14.63;;;;;;;;;;5025664;28;20428;-88
2021/12/15 10:48:34;;;;;;;20.35;17.25;;;;;;;;;;5015346;28;20438;-88
2021/12/15 10:51:05;;;;;;;20.90;16.98;;;;;;;;;;5020765;28;20403;-88
2021/12/15 10:53:36;;;;;;;14.87;12.93;;;;;;;;;;5017674;28;20433;-89
2021/12/15 10:56:11;;;;;;;16.73;13.93;;;;;;;;;;5025754;28;20464;-90
2021/12/15 10:58:42;;;;;;;11.45;10.23;;;;;;;;;;5021051;28;20719;-89
2021/12/15 11:01:36;;;;;;;12.30;10.30;;;;;;;;;;5020806;28;20410;-88
2021/12/15 11:04:04;;;;;;;12.52;10.55;;;;;;;;;;5017213;28;20419;-90
2021/12/15 11:06:33;;;;;;;13.82;10.80;;;;;;;;;;5018475;28;20414;-90
2021/12/15 11:09:20;;;;;;;13.80;11.75;;;;;;;;;;5021489;28;20953;-87
2021/12/15 11:12:01;;;;;;;16.33;12.38;;;;;;;;;;5021047;28;20410;-91
2021/12/15 11:14:30;;;;;;;13.80;10.50;;;;;;;;;;5018082;28;20415;-89
2021/12/15 11:17:09;;;;;;;12.85;9.82;;;;;;;;;;5019027;28;20404;-89
2021/12/15 11:19:43;;;;;;;13.30;10.80;;;;;;;;;;5015609;28;20819;-89
2021/12/15 11:22:33;;;;;;;13.87;11.47;;;;;;;;;;5019745;28;20411;-89
2021/12/15 11:25:02;;;;;;;14.38;12.05;;;;;;;;;;5019544;28;20474;-90
2021/12/15 11:27:29;;;;;;;14.63;11.30;;;;;;;;;;5012814;28;20488;-89
2021/12/15 11:29:56;;;;;;;12.73;10.95;;;;;;;;;;5021914;28;20818;-90
2021/12/15 11:32:45;;;;;;;13.30;10.75;;;;;;;;;;5017183;28;20401;-88
2021/12/15 11:35:19;;;;;;;15.93;11.53;;;;;;;;;;5019865;28;20587;-89
2021/12/15 11:37:49;;;;;;;12.57;10.87;;;;;;;;;;5019368;28;20576;-89
2021/12/15 11:40:17;;;;;;;11.77;10.32;;;;;;;;;;5015905;28;20454;-91
2021/12/15 11:42:45;;;;;;;15.10;10.07;;;;;;;;;;5017039;28;20411;-90
2021/12/15 11:45:14;;;;;;;12.27;10.43;;;;;;;;;;5021004;28;20458;-90
2021/12/15 11:47:42;;;;;;;12.25;10.50;;;;;;;;;;5022559;28;20405;-89
2021/12/15 11:50:13;;;;;;;13.95;10.30;;;;;;;;;;5019671;28;20404;-89
2021/12/15 11:52:42;;;;;;;11.73;9.60;;;;;;;;;;5018157;28;20441;-88
2021/12/15 11:55:22;;;;;;;15.02;10.40;;;;;;;;;;5020888;28;20419;-88
2021/12/15 11:57:49;;;;;;;11.95;8.80;;;;;;;;;;5013113;28;20447;-89
2021/12/15 12:00:19;;;;;;;11.57;8.27;;;;;;;;;;5021163;28;20415;-88
2021/12/15 12:02:51;;;;;;;10.15;8.23;;;;;;;;;;5017184;28;20450;-86
2021/12/15 12:05:22;;;;;;;8.35;6.95;;;;;;;;;;5019455;28;20464;-88
2021/12/15 12:07:53;;;;;;;10.35;7.45;;;;;;;;;;5018013;28;21329;-87
2021/12/15 12:10:25;;;;;;;9.02;7.32;;;;;;;;;;5013391;28;20544;-91
2021/12/15 12:13:02;;;;;;;9.18;7.18;;;;;;;;;;5022313;28;20502;-90
2021/12/15 12:15:30;;;;;;;8.60;7.20;;;;;;;;;;5014829;28;20918;-90
2021/12/15 12:18:03;;;;;;;9.82;7.28;;;;;;;;;;5012797;28;20529;-91
2021/12/15 12:20:32;;;;;;;9.32;7.90;;;;;;;;;;5017585;28;20569;-89
2021/12/15 12:23:01;;;;;;;7.60;6.50;;;;;;;;;;5014622;28;20503;-89
2021/12/15 12:25:31;;;;;;;8.07;6.07;;;;;;;;;;5017885;28;20461;-89
2021/12/15 12:27:59;;;;;;;7.97;7.00;;;;;;;;;;5024254;28;20540;-90
2021/12/15 12:30:29;;;;;;;9.30;8.40;;;;;;;;;;5016326;28;20438;-90
2021/12/15 12:32:58;;;;;;;9.50;7.40;;;;;;;;;;5019298;28;21147;-91
2021/12/15 12:35:29;;;;;;;7.97;6.00;;;;;;;;;;5017622;28;20458;-89
2021/12/15 12:37:59;;;;;;;6.13;5.30;;;;;;;;;;5015881;28;20421;-90
2021/12/15 12:40:29;;;;;;;5.30;4.80;;;;;;;;;;5022865;28;20471;-89
2021/12/15 12:42:56;;;;;;;6.68;4.95;;;;;;;;;;5013899;28;20421;-90
2021/12/15 12:45:34;;;;;;;8.20;6.55;;;;;;;;;;5017883;28;20426;-89
2021/12/15 12:48:32;;;;;;;6.97;6.20;;;;;;;;;;5013112;28;20502;-90
2021/12/15 12:59:25;;;;;;;5.45;4.57;;;;;;;;;;5017355;28;20506;-91
2021/12/15 13:01:53;;;;;;;5.47;4.45;;;;;;;;;;5030201;28;20409;-91
2021/12/15 13:04:20;;;;;;;4.20;3.75;;;;;;;;;;5031317;28;20487;-91
2021/12/15 13:06:49;;;;;;;5.30;3.60;;;;;;;;;;5028513;28;20380;-90
2021/12/15 13:09:19;;;;;;;4.97;4.47;;;;;;;;;;5040638;28;20405;-90
2021/12/15 13:11:50;;;;;;;5.45;4.68;;;;;;;;;;5036158;28;20457;-91
2021/12/15 13:14:19;;;;;;;6.53;5.80;;;;;;;;;;5030617;28;20389;-91
2021/12/15 13:16:50;;;;;;;7.47;6.35;;;;;;;;;;5031521;28;20397;-90
2021/12/15 13:19:24;;;;;;;6.72;5.07;;;;;;;;;;5019961;28;20463;-90
2021/12/15 13:22:14;;;;;;;7.35;5.20;;;;;;;;;;5021393;28;20447;-89
2021/12/15 13:30:48;;;;;;;5.80;4.97;;;;;;;;;;5025544;28;20455;-90
2021/12/15 13:33:19;;;;;;;6.88;5.40;;;;;;;;;;5018378;28;20419;-91
2021/12/15 13:35:53;;;;;;;6.75;5.60;;;;;;;;;;5022662;28;20401;-90
2021/12/15 13:38:29;;;;;;;6.57;5.88;;;;;;;;;;5023441;28;20405;-87
2021/12/15 13:41:22;;;;;;;7.22;5.57;;;;;;;;;;5011981;28;20406;-90
2021/12/15 13:44:03;;;;;;;6.30;5.70;;;;;;;;;;5016490;28;20423;-90
2021/12/15 13:46:38;;;;;;;6.45;5.57;;;;;;;;;;5019164;28;20399;-90
2021/12/15 13:49:34;;;;;;;6.15;5.63;;;;;;;;;;5012048;28;20433;-88
2021/12/15 13:52:11;;;;;;;30.90;27.80;;;;;;;;;;4997522;28;20414;-79
2021/12/15 13:55:01;;;;;;;14.10;12.80;;;;;;;;;;5017020;28;20410;-90
2021/12/15 13:57:34;;;;;;;6.78;5.70;;;;;;;;;;5013786;28;20415;-91
2021/12/15 14:00:18;;;;;;;6.78;6.07;;;;;;;;;;5019501;28;20979;-90
2021/12/15 14:02:57;;;;;;;5.95;5.35;;;;;;;;;;5017742;28;20417;-91
2021/12/15 14:05:27;;;;;;;5.93;5.32;;;;;;;;;;5019946;28;20524;-91
2021/12/15 14:08:00;;;;;;;7.32;5.63;;;;;;;;;;5017101;28;20419;-90
2021/12/15 14:10:55;;;;;;;7.57;5.78;;;;;;;;;;5023314;28;21041;-90
2021/12/15 14:13:36;;;;;;;7.45;5.85;;;;;;;;;;5017881;28;20417;-92
2021/12/15 14:16:03;;;;;;;6.65;5.95;;;;;;;;;;5016763;28;20902;-92
2021/12/15 14:18:35;;;;;;;7.00;6.30;;;;;;;;;;5015589;28;20533;-91
2021/12/15 14:21:05;;;;;;;6.82;6.13;;;;;;;;;;5018089;28;21062;-91
2021/12/15 14:23:35;;;;;;;7.22;6.45;;;;;;;;;;5020376;28;20421;-90
2021/12/15 14:26:07;;;;;;;10.25;8.95;;;;;;;;;;5015690;28;20413;-90
2021/12/15 14:28:36;;;;;;;13.45;11.60;;;;;;;;;;5021778;28;20410;-91
2021/12/15 14:31:06;;;;;;;10.90;9.77;;;;;;;;;;5022471;28;21893;-91
2021/12/15 14:33:36;;;;;;;10.20;8.35;;;;;;;;;;5018412;28;20426;-91
2021/12/15 14:36:10;;;;;;;9.55;6.97;;;;;;;;;;5019866;28;20409;-92
2021/12/15 14:38:42;;;;;;;8.40;7.43;;;;;;;;;;5021746;28;20406;-90
2021/12/15 14:41:14;;;;;;;10.25;6.85;;;;;;;;;;5034478;28;20402;-91
2021/12/15 14:43:41;;;;;;;7.53;6.72;;;;;;;;;;5021966;28;20789;-91
2021/12/15 14:46:25;;;;;;;7.93;7.10;;;;;;;;;;5021883;28;20421;-91
2021/12/15 14:49:05;;;;;;;8.90;6.93;;;;;;;;;;5018221;28;20411;-91
2021/12/15 14:51:33;;;;;;;8.45;6.97;;;;;;;;;;5017068;28;20435;-90
2021/12/15 14:54:00;;;;;;;7.57;6.65;;;;;;;;;;5013028;28;20422;-91
2021/12/15 14:56:51;;;;;;;9.70;6.43;;;;;;;;;;5015923;28;20422;-91
2021/12/15 14:59:20;;;;;;;12.25;6.82;;;;;;;;;;5019264;28;20413;-90
2021/12/15 15:01:50;;;;;;;10.73;7.60;;;;;;;;;;5019881;28;20417;-91
2021/12/15 15:04:17;;;;;;;10.23;7.13;;;;;;;;;;5017727;28;20426;-90
2021/12/15 15:06:45;;;;;;;9.53;6.60;;;;;;;;;;5020115;28;20440;-91
2021/12/15 15:09:19;;;;;;;12.10;7.43;;;;;;;;;;5017568;28;20403;-90
2021/12/15 15:11:58;;;;;;;8.57;6.70;;;;;;;;;;5016949;28;20426;-90
2021/12/15 15:14:35;;;;;;;10.68;7.20;;;;;;;;;;5014179;28;20411;-88
2021/12/15 15:17:04;;;;;;;13.05;7.35;;;;;;;;;;5021113;28;20426;-89
2021/12/15 15:19:33;;;;;;;10.82;7.28;;;;;;;;;;5019903;28;20430;-88
2021/12/15 15:22:00;;;;;;;10.40;6.75;;;;;;;;;;5018384;28;20987;-90
2021/12/15 15:24:31;;;;;;;10.82;7.70;;;;;;;;;;5017809;28;20512;-91
2021/12/15 15:27:02;;;;;;;13.00;7.78;;;;;;;;;;5014494;28;20412;-91
2021/12/15 15:29:36;;;;;;;14.85;8.55;;;;;;;;;;5016788;28;20713;-77
2021/12/15 15:32:09;;;;;;;18.58;8.95;;;;;;;;;;5013782;28;20477;-93
2021/12/15 15:34:37;;;;;;;18.38;8.85;;;;;;;;;;5019899;28;20486;-92
2021/12/15 15:37:12;;;;;;;17.90;8.32;;;;;;;;;;5018833;28;20448;-92
2021/12/15 15:39:39;;;;;;;17.42;8.20;;;;;;;;;;5016266;28;20471;-93
2021/12/15 15:42:09;;;;;;;12.00;8.10;;;;;;;;;;5021622;28;20428;-92
2021/12/15 15:44:39;;;;;;;15.93;9.38;;;;;;;;;;5019878;28;20477;-92
2021/12/15 15:47:15;;;;;;;16.48;9.32;;;;;;;;;;5014968;28;20519;-92
2021/12/15 18:42:27;;;;;;;50.35;33.75;;;;;;;;;;3101826;23;20449;-91